sensor_id;sensor_type;location;lat;lon;timestamp;temperature;humidity
66722;SHT31;53633;49.932;10.884;2023-07-13T00:02:18;23.37;55.28
66722;SHT31;53633;49.932;10.884;2023-07-13T00:04:45;23.32;55.33
66722;SHT31;53633;49.932;10.884;2023-07-13T00:07:13;23.27;56.16
66722;SHT31;53633;49.932;10.884;2023-07-13T00:09:40;23.06;56.27
66722;SHT31;53633;49.932;10.884;2023-07-13T00:12:23;22.97;57.14
66722;SHT31;53633;49.932;10.884;2023-07-13T00:14:50;22.92;56.91
66722;SHT31;53633;49.932;10.884;2023-07-13T00:17:17;22.93;57.27
66722;SHT31;53633;49.932;10.884;2023-07-13T00:19:44;22.96;56.93
66722;SHT31;53633;49.932;10.884;2023-07-13T00:22:10;22.89;57.20
66722;SHT31;53633;49.932;10.884;2023-07-13T00:24:38;22.76;57.18
66722;SHT31;53633;49.932;10.884;2023-07-13T00:27:05;22.77;57.75
66722;SHT31;53633;49.932;10.884;2023-07-13T00:29:32;22.76;57.38
66722;SHT31;53633;49.932;10.884;2023-07-13T00:31:59;22.53;58.11
66722;SHT31;53633;49.932;10.884;2023-07-13T00:34:26;22.44;58.37
66722;SHT31;53633;49.932;10.884;2023-07-13T00:36:52;22.55;58.55
66722;SHT31;53633;49.932;10.884;2023-07-13T00:39:22;22.57;58.69
66722;SHT31;53633;49.932;10.884;2023-07-13T00:41:51;22.57;58.40
66722;SHT31;53633;49.932;10.884;2023-07-13T00:44:19;22.37;58.72
66722;SHT31;53633;49.932;10.884;2023-07-13T00:46:46;22.28;58.84
66722;SHT31;53633;49.932;10.884;2023-07-13T00:49:16;22.45;59.02
66722;SHT31;53633;49.932;10.884;2023-07-13T00:51:50;22.32;58.80
66722;SHT31;53633;49.932;10.884;2023-07-13T00:54:25;22.31;58.88
66722;SHT31;53633;49.932;10.884;2023-07-13T00:56:57;22.22;59.69
66722;SHT31;53633;49.932;10.884;2023-07-13T00:59:26;22.15;59.75
66722;SHT31;53633;49.932;10.884;2023-07-13T01:01:53;22.25;59.68
66722;SHT31;53633;49.932;10.884;2023-07-13T01:04:20;22.25;59.60
66722;SHT31;53633;49.932;10.884;2023-07-13T01:06:47;21.94;60.25
66722;SHT31;53633;49.932;10.884;2023-07-13T01:09:14;21.72;61.72
66722;SHT31;53633;49.932;10.884;2023-07-13T01:11:41;21.47;61.70
66722;SHT31;53633;49.932;10.884;2023-07-13T01:14:10;21.32;62.84
66722;SHT31;53633;49.932;10.884;2023-07-13T01:16:38;21.19;62.93
66722;SHT31;53633;49.932;10.884;2023-07-13T01:19:12;21.08;63.49
66722;SHT31;53633;49.932;10.884;2023-07-13T01:21:42;20.92;63.89
66722;SHT31;53633;49.932;10.884;2023-07-13T01:24:09;21.02;63.73
66722;SHT31;53633;49.932;10.884;2023-07-13T01:26:36;20.99;63.91
66722;SHT31;53633;49.932;10.884;2023-07-13T01:29:03;21.09;63.46
66722;SHT31;53633;49.932;10.884;2023-07-13T01:31:30;21.28;62.55
66722;SHT31;53633;49.932;10.884;2023-07-13T01:33:56;21.19;62.47
66722;SHT31;53633;49.932;10.884;2023-07-13T01:36:23;21.25;62.29
66722;SHT31;53633;49.932;10.884;2023-07-13T01:38:51;21.26;61.99
66722;SHT31;53633;49.932;10.884;2023-07-13T01:41:18;21.02;62.57
66722;SHT31;53633;49.932;10.884;2023-07-13T01:43:45;20.73;63.01
66722;SHT31;53633;49.932;10.884;2023-07-13T01:46:12;20.66;63.87
66722;SHT31;53633;49.932;10.884;2023-07-13T01:48:49;20.60;63.31
66722;SHT31;53633;49.932;10.884;2023-07-13T01:51:16;20.43;63.79
66722;SHT31;53633;49.932;10.884;2023-07-13T01:53:43;20.28;64.42
66722;SHT31;53633;49.932;10.884;2023-07-13T01:56:11;20.26;64.67
66722;SHT31;53633;49.932;10.884;2023-07-13T01:58:39;20.16;64.00
66722;SHT31;53633;49.932;10.884;2023-07-13T02:01:05;20.05;64.66
66722;SHT31;53633;49.932;10.884;2023-07-13T02:03:32;20.05;64.50
66722;SHT31;53633;49.932;10.884;2023-07-13T02:05:59;19.94;64.27
66722;SHT31;53633;49.932;10.884;2023-07-13T02:08:26;19.85;63.89
66722;SHT31;53633;49.932;10.884;2023-07-13T02:10:52;19.78;63.82
66722;SHT31;53633;49.932;10.884;2023-07-13T02:13:21;19.75;63.81
66722;SHT31;53633;49.932;10.884;2023-07-13T02:15:50;19.87;64.55
66722;SHT31;53633;49.932;10.884;2023-07-13T02:18:16;19.79;64.79
66722;SHT31;53633;49.932;10.884;2023-07-13T02:20:43;19.70;64.98
66722;SHT31;53633;49.932;10.884;2023-07-13T02:23:10;19.81;65.30
66722;SHT31;53633;49.932;10.884;2023-07-13T02:25:37;19.79;64.52
66722;SHT31;53633;49.932;10.884;2023-07-13T02:28:04;19.64;64.84
66722;SHT31;53633;49.932;10.884;2023-07-13T02:30:33;19.85;64.53
66722;SHT31;53633;49.932;10.884;2023-07-13T02:33:00;20.05;63.20
66722;SHT31;53633;49.932;10.884;2023-07-13T02:35:27;20.04;62.93
66722;SHT31;53633;49.932;10.884;2023-07-13T02:37:54;20.16;62.79
66722;SHT31;53633;49.932;10.884;2023-07-13T02:40:21;20.16;62.38
66722;SHT31;53633;49.932;10.884;2023-07-13T02:42:48;20.19;61.78
66722;SHT31;53633;49.932;10.884;2023-07-13T02:45:15;20.13;61.90
66722;SHT31;53633;49.932;10.884;2023-07-13T02:47:43;20.25;61.69
66722;SHT31;53633;49.932;10.884;2023-07-13T02:50:10;20.22;61.68
66722;SHT31;53633;49.932;10.884;2023-07-13T02:52:36;20.21;61.49
66722;SHT31;53633;49.932;10.884;2023-07-13T02:55:04;20.28;60.84
66722;SHT31;53633;49.932;10.884;2023-07-13T02:57:30;20.08;60.45
66722;SHT31;53633;49.932;10.884;2023-07-13T02:59:57;20.08;61.12
66722;SHT31;53633;49.932;10.884;2023-07-13T03:02:24;20.15;61.23
66722;SHT31;53633;49.932;10.884;2023-07-13T03:04:52;20.12;60.03
66722;SHT31;53633;49.932;10.884;2023-07-13T03:07:19;20.12;59.34
66722;SHT31;53633;49.932;10.884;2023-07-13T03:09:46;19.81;60.49
66722;SHT31;53633;49.932;10.884;2023-07-13T03:12:12;19.71;62.15
66722;SHT31;53633;49.932;10.884;2023-07-13T03:14:39;19.70;62.08
66722;SHT31;53633;49.932;10.884;2023-07-13T03:17:06;19.39;62.68
66722;SHT31;53633;49.932;10.884;2023-07-13T03:19:33;19.08;63.89
66722;SHT31;53633;49.932;10.884;2023-07-13T03:22:01;18.89;64.77
66722;SHT31;53633;49.932;10.884;2023-07-13T03:24:27;18.75;65.08
66722;SHT31;53633;49.932;10.884;2023-07-13T03:26:54;18.91;65.49
66722;SHT31;53633;49.932;10.884;2023-07-13T03:29:21;19.01;65.25
66722;SHT31;53633;49.932;10.884;2023-07-13T03:31:48;18.95;65.37
66722;SHT31;53633;49.932;10.884;2023-07-13T03:34:14;18.98;64.28
66722;SHT31;53633;49.932;10.884;2023-07-13T03:36:41;18.92;64.37
66722;SHT31;53633;49.932;10.884;2023-07-13T03:39:09;18.71;64.65
66722;SHT31;53633;49.932;10.884;2023-07-13T03:41:36;18.64;64.96
66722;SHT31;53633;49.932;10.884;2023-07-13T03:44:03;18.64;65.69
66722;SHT31;53633;49.932;10.884;2023-07-13T03:46:30;18.68;64.61
66722;SHT31;53633;49.932;10.884;2023-07-13T03:48:57;18.64;64.75
66722;SHT31;53633;49.932;10.884;2023-07-13T03:51:24;18.67;64.76
66722;SHT31;53633;49.932;10.884;2023-07-13T03:53:51;18.65;64.60
66722;SHT31;53633;49.932;10.884;2023-07-13T03:56:19;18.65;64.98
66722;SHT31;53633;49.932;10.884;2023-07-13T03:58:47;18.75;64.48
66722;SHT31;53633;49.932;10.884;2023-07-13T04:01:16;18.91;64.69
66722;SHT31;53633;49.932;10.884;2023-07-13T04:03:43;19.29;63.51
66722;SHT31;53633;49.932;10.884;2023-07-13T04:06:15;19.46;62.94
66722;SHT31;53633;49.932;10.884;2023-07-13T04:08:42;19.70;62.40
66722;SHT31;53633;49.932;10.884;2023-07-13T04:11:09;19.85;61.88
66722;SHT31;53633;49.932;10.884;2023-07-13T04:13:37;20.04;61.23
66722;SHT31;53633;49.932;10.884;2023-07-13T04:16:04;20.16;61.38
66722;SHT31;53633;49.932;10.884;2023-07-13T04:18:31;20.46;60.38
66722;SHT31;53633;49.932;10.884;2023-07-13T04:20:58;20.66;60.52
66722;SHT31;53633;49.932;10.884;2023-07-13T04:23:24;20.78;59.93
66722;SHT31;53633;49.932;10.884;2023-07-13T04:25:53;20.66;59.63
66722;SHT31;53633;49.932;10.884;2023-07-13T04:28:23;20.73;60.23
66722;SHT31;53633;49.932;10.884;2023-07-13T04:30:52;20.78;59.95
66722;SHT31;53633;49.932;10.884;2023-07-13T04:33:18;20.97;59.34
66722;SHT31;53633;49.932;10.884;2023-07-13T04:35:45;21.50;58.29
66722;SHT31;53633;49.932;10.884;2023-07-13T04:38:12;22.21;56.75
66722;SHT31;53633;49.932;10.884;2023-07-13T04:40:39;22.63;54.77
66722;SHT31;53633;49.932;10.884;2023-07-13T04:43:06;22.84;54.64
66722;SHT31;53633;49.932;10.884;2023-07-13T04:45:34;22.97;55.27
66722;SHT31;53633;49.932;10.884;2023-07-13T04:48:03;23.13;54.22
66722;SHT31;53633;49.932;10.884;2023-07-13T04:50:30;22.86;55.08
66722;SHT31;53633;49.932;10.884;2023-07-13T04:52:57;22.99;54.40
66722;SHT31;53633;49.932;10.884;2023-07-13T04:55:23;22.89;53.87
66722;SHT31;53633;49.932;10.884;2023-07-13T04:57:51;23.45;53.68
66722;SHT31;53633;49.932;10.884;2023-07-13T05:00:18;23.13;54.04
66722;SHT31;53633;49.932;10.884;2023-07-13T05:02:45;22.87;55.22
66722;SHT31;53633;49.932;10.884;2023-07-13T05:05:13;22.41;56.60
66722;SHT31;53633;49.932;10.884;2023-07-13T05:07:40;22.89;55.83
66722;SHT31;53633;49.932;10.884;2023-07-13T05:10:21;22.63;56.75
66722;SHT31;53633;49.932;10.884;2023-07-13T05:12:48;22.67;55.99
66722;SHT31;53633;49.932;10.884;2023-07-13T05:15:15;22.66;56.60
66722;SHT31;53633;49.932;10.884;2023-07-13T05:17:42;22.65;56.29
66722;SHT31;53633;49.932;10.884;2023-07-13T05:20:09;22.86;56.77
66722;SHT31;53633;49.932;10.884;2023-07-13T05:22:37;22.90;55.81
66722;SHT31;53633;49.932;10.884;2023-07-13T05:25:05;22.99;55.95
66722;SHT31;53633;49.932;10.884;2023-07-13T05:27:32;23.24;54.36
66722;SHT31;53633;49.932;10.884;2023-07-13T05:29:59;24.14;52.92
66722;SHT31;53633;49.932;10.884;2023-07-13T05:32:26;24.92;51.04
66722;SHT31;53633;49.932;10.884;2023-07-13T05:34:53;24.68;50.82
66722;SHT31;53633;49.932;10.884;2023-07-13T05:37:19;24.23;51.77
66722;SHT31;53633;49.932;10.884;2023-07-13T05:39:48;24.12;52.25
66722;SHT31;53633;49.932;10.884;2023-07-13T05:42:14;24.14;52.83
66722;SHT31;53633;49.932;10.884;2023-07-13T05:44:41;23.95;52.21
66722;SHT31;53633;49.932;10.884;2023-07-13T05:47:08;23.80;52.33
66722;SHT31;53633;49.932;10.884;2023-07-13T05:49:35;23.85;51.81
66722;SHT31;53633;49.932;10.884;2023-07-13T05:52:01;23.82;52.32
66722;SHT31;53633;49.932;10.884;2023-07-13T05:54:28;23.82;51.67
66722;SHT31;53633;49.932;10.884;2023-07-13T05:56:56;24.05;50.52
66722;SHT31;53633;49.932;10.884;2023-07-13T05:59:23;24.41;50.55
66722;SHT31;53633;49.932;10.884;2023-07-13T06:01:50;25.06;48.38
66722;SHT31;53633;49.932;10.884;2023-07-13T06:04:17;24.95;48.83
66722;SHT31;53633;49.932;10.884;2023-07-13T06:06:43;25.17;48.59
66722;SHT31;53633;49.932;10.884;2023-07-13T06:09:10;25.05;48.84
66722;SHT31;53633;49.932;10.884;2023-07-13T06:11:37;25.44;48.28
66722;SHT31;53633;49.932;10.884;2023-07-13T06:14:05;25.50;47.26
66722;SHT31;53633;49.932;10.884;2023-07-13T06:16:32;25.06;48.52
66722;SHT31;53633;49.932;10.884;2023-07-13T06:18:59;24.96;49.06
66722;SHT31;53633;49.932;10.884;2023-07-13T06:21:25;24.93;49.28
66722;SHT31;53633;49.932;10.884;2023-07-13T06:23:52;25.08;48.40
66722;SHT31;53633;49.932;10.884;2023-07-13T06:26:20;27.54;43.93
66722;SHT31;53633;49.932;10.884;2023-07-13T06:28:47;27.76;42.84
66722;SHT31;53633;49.932;10.884;2023-07-13T06:31:15;27.77;41.13
66722;SHT31;53633;49.932;10.884;2023-07-13T06:33:43;26.71;44.21
66722;SHT31;53633;49.932;10.884;2023-07-13T06:36:10;26.54;44.17
66722;SHT31;53633;49.932;10.884;2023-07-13T06:38:37;25.53;46.24
66722;SHT31;53633;49.932;10.884;2023-07-13T06:41:04;25.60;47.03
66722;SHT31;53633;49.932;10.884;2023-07-13T06:43:31;26.94;43.55
66722;SHT31;53633;49.932;10.884;2023-07-13T06:45:58;27.96;42.22
66722;SHT31;53633;49.932;10.884;2023-07-13T06:48:26;28.66;40.83
66722;SHT31;53633;49.932;10.884;2023-07-13T06:50:53;28.76;41.09
66722;SHT31;53633;49.932;10.884;2023-07-13T06:53:21;28.29;41.43
66722;SHT31;53633;49.932;10.884;2023-07-13T06:55:48;28.25;41.58
66722;SHT31;53633;49.932;10.884;2023-07-13T06:58:16;29.00;39.73
66722;SHT31;53633;49.932;10.884;2023-07-13T07:00:43;29.17;39.52
66722;SHT31;53633;49.932;10.884;2023-07-13T07:03:10;29.29;38.62
66722;SHT31;53633;49.932;10.884;2023-07-13T07:05:38;29.31;39.37
66722;SHT31;53633;49.932;10.884;2023-07-13T07:08:05;29.82;38.95
66722;SHT31;53633;49.932;10.884;2023-07-13T07:10:33;30.24;38.38
66722;SHT31;53633;49.932;10.884;2023-07-13T07:13:00;30.41;38.17
66722;SHT31;53633;49.932;10.884;2023-07-13T07:15:28;29.15;39.31
66722;SHT31;53633;49.932;10.884;2023-07-13T07:17:55;28.29;40.31
66722;SHT31;53633;49.932;10.884;2023-07-13T07:20:22;27.49;42.50
66722;SHT31;53633;49.932;10.884;2023-07-13T07:22:50;27.15;41.95
66722;SHT31;53633;49.932;10.884;2023-07-13T07:25:17;26.77;43.09
66722;SHT31;53633;49.932;10.884;2023-07-13T07:27:44;26.46;44.36
66722;SHT31;53633;49.932;10.884;2023-07-13T07:30:13;26.35;43.80
66722;SHT31;53633;49.932;10.884;2023-07-13T07:32:43;26.13;44.59
66722;SHT31;53633;49.932;10.884;2023-07-13T07:35:12;26.13;44.63
66722;SHT31;53633;49.932;10.884;2023-07-13T07:37:39;26.67;44.43
66722;SHT31;53633;49.932;10.884;2023-07-13T07:40:10;27.25;43.43
66722;SHT31;53633;49.932;10.884;2023-07-13T07:42:40;27.76;42.15
66722;SHT31;53633;49.932;10.884;2023-07-13T07:45:07;28.28;41.03
66722;SHT31;53633;49.932;10.884;2023-07-13T07:47:34;28.31;40.26
66722;SHT31;53633;49.932;10.884;2023-07-13T07:50:01;28.39;40.43
66722;SHT31;53633;49.932;10.884;2023-07-13T07:52:28;28.53;39.74
66722;SHT31;53633;49.932;10.884;2023-07-13T07:54:54;28.48;38.94
66722;SHT31;53633;49.932;10.884;2023-07-13T07:57:42;28.19;39.57
66722;SHT31;53633;49.932;10.884;2023-07-13T08:00:13;27.90;39.79
66722;SHT31;53633;49.932;10.884;2023-07-13T08:02:43;28.14;39.84
66722;SHT31;53633;49.932;10.884;2023-07-13T08:05:13;28.05;40.30
66722;SHT31;53633;49.932;10.884;2023-07-13T08:07:43;28.15;37.18
66722;SHT31;53633;49.932;10.884;2023-07-13T08:10:10;28.83;35.54
66722;SHT31;53633;49.932;10.884;2023-07-13T08:12:37;29.22;33.70
66722;SHT31;53633;49.932;10.884;2023-07-13T08:15:13;29.03;34.74
66722;SHT31;53633;49.932;10.884;2023-07-13T08:17:40;28.96;33.82
66722;SHT31;53633;49.932;10.884;2023-07-13T08:20:08;29.03;34.51
66722;SHT31;53633;49.932;10.884;2023-07-13T08:22:35;29.15;33.99
66722;SHT31;53633;49.932;10.884;2023-07-13T08:25:02;29.32;33.43
66722;SHT31;53633;49.932;10.884;2023-07-13T08:27:29;29.15;33.68
66722;SHT31;53633;49.932;10.884;2023-07-13T08:29:56;29.18;33.93
66722;SHT31;53633;49.932;10.884;2023-07-13T08:32:24;29.67;34.06
66722;SHT31;53633;49.932;10.884;2023-07-13T08:34:51;29.79;33.11
66722;SHT31;53633;49.932;10.884;2023-07-13T08:37:18;30.07;32.68
66722;SHT31;53633;49.932;10.884;2023-07-13T08:39:44;30.37;32.13
66722;SHT31;53633;49.932;10.884;2023-07-13T08:42:16;30.86;31.84
66722;SHT31;53633;49.932;10.884;2023-07-13T08:44:52;30.90;30.13
66722;SHT31;53633;49.932;10.884;2023-07-13T08:47:24;31.29;28.34
66722;SHT31;53633;49.932;10.884;2023-07-13T08:49:51;31.09;29.42
66722;SHT31;53633;49.932;10.884;2023-07-13T08:52:28;31.30;29.06
66722;SHT31;53633;49.932;10.884;2023-07-13T08:54:58;31.55;29.24
66722;SHT31;53633;49.932;10.884;2023-07-13T08:57:32;31.35;29.46
66722;SHT31;53633;49.932;10.884;2023-07-13T08:59:59;31.48;28.86
66722;SHT31;53633;49.932;10.884;2023-07-13T09:02:30;31.54;28.77
66722;SHT31;53633;49.932;10.884;2023-07-13T09:05:03;32.02;28.32
66722;SHT31;53633;49.932;10.884;2023-07-13T09:07:41;31.93;28.04
66722;SHT31;53633;49.932;10.884;2023-07-13T09:10:15;31.93;28.36
66722;SHT31;53633;49.932;10.884;2023-07-13T09:12:53;32.63;27.79
66722;SHT31;53633;49.932;10.884;2023-07-13T09:15:27;32.73;27.75
66722;SHT31;53633;49.932;10.884;2023-07-13T09:17:59;32.49;27.57
66722;SHT31;53633;49.932;10.884;2023-07-13T09:20:31;32.01;28.25
66722;SHT31;53633;49.932;10.884;2023-07-13T09:22:59;32.08;27.78
66722;SHT31;53633;49.932;10.884;2023-07-13T09:25:30;32.63;27.81
66722;SHT31;53633;49.932;10.884;2023-07-13T09:28:00;32.57;27.86
66722;SHT31;53633;49.932;10.884;2023-07-13T09:30:34;32.44;27.64
66722;SHT31;53633;49.932;10.884;2023-07-13T09:33:04;32.23;27.53
66722;SHT31;53633;49.932;10.884;2023-07-13T09:35:31;31.16;28.53
66722;SHT31;53633;49.932;10.884;2023-07-13T09:37:59;30.85;28.93
66722;SHT31;53633;49.932;10.884;2023-07-13T09:40:46;30.51;30.10
66722;SHT31;53633;49.932;10.884;2023-07-13T09:43:17;30.89;30.04
66722;SHT31;53633;49.932;10.884;2023-07-13T09:45:46;31.12;29.74
66722;SHT31;53633;49.932;10.884;2023-07-13T09:48:16;31.81;28.78
66722;SHT31;53633;49.932;10.884;2023-07-13T09:50:43;31.61;28.22
66722;SHT31;53633;49.932;10.884;2023-07-13T09:53:14;32.10;27.36
66722;SHT31;53633;49.932;10.884;2023-07-13T09:55:42;31.92;28.13
66722;SHT31;53633;49.932;10.884;2023-07-13T09:58:12;31.75;28.20
66722;SHT31;53633;49.932;10.884;2023-07-13T10:00:40;31.04;28.45
66722;SHT31;53633;49.932;10.884;2023-07-13T10:03:18;31.23;28.39
66722;SHT31;53633;49.932;10.884;2023-07-13T10:05:47;31.13;28.51
66722;SHT31;53633;49.932;10.884;2023-07-13T10:08:26;30.28;29.01
66722;SHT31;53633;49.932;10.884;2023-07-13T10:10:57;30.32;29.42
66722;SHT31;53633;49.932;10.884;2023-07-13T10:13:27;29.20;31.01
66722;SHT31;53633;49.932;10.884;2023-07-13T10:15:55;29.25;31.45
66722;SHT31;53633;49.932;10.884;2023-07-13T10:18:24;29.51;30.40
66722;SHT31;53633;49.932;10.884;2023-07-13T10:20:54;29.41;30.50
66722;SHT31;53633;49.932;10.884;2023-07-13T10:23:48;29.03;31.27
66722;SHT31;53633;49.932;10.884;2023-07-13T10:26:19;28.64;31.54
66722;SHT31;53633;49.932;10.884;2023-07-13T10:28:51;28.97;31.49
66722;SHT31;53633;49.932;10.884;2023-07-13T10:31:19;28.57;31.58
66722;SHT31;53633;49.932;10.884;2023-07-13T10:33:48;28.28;32.02
66722;SHT31;53633;49.932;10.884;2023-07-13T10:36:23;28.56;31.48
66722;SHT31;53633;49.932;10.884;2023-07-13T10:38:55;27.90;32.14
66722;SHT31;53633;49.932;10.884;2023-07-13T10:41:24;28.14;32.61
66722;SHT31;53633;49.932;10.884;2023-07-13T10:43:54;28.34;32.70
66722;SHT31;53633;49.932;10.884;2023-07-13T10:46:23;28.53;32.52
66722;SHT31;53633;49.932;10.884;2023-07-13T10:48:54;28.63;32.08
66722;SHT31;53633;49.932;10.884;2023-07-13T10:51:21;28.49;32.85
66722;SHT31;53633;49.932;10.884;2023-07-13T10:54:12;28.11;33.66
66722;SHT31;53633;49.932;10.884;2023-07-13T10:56:46;27.93;33.28
66722;SHT31;53633;49.932;10.884;2023-07-13T10:59:18;27.60;33.32
66722;SHT31;53633;49.932;10.884;2023-07-13T11:01:54;27.02;34.75
66722;SHT31;53633;49.932;10.884;2023-07-13T11:04:23;27.21;34.04
66722;SHT31;53633;49.932;10.884;2023-07-13T11:06:56;27.23;34.17
66722;SHT31;53633;49.932;10.884;2023-07-13T11:09:37;27.61;34.80
66722;SHT31;53633;49.932;10.884;2023-07-13T11:12:26;27.76;34.27
66722;SHT31;53633;49.932;10.884;2023-07-13T11:15:05;27.52;35.19
66722;SHT31;53633;49.932;10.884;2023-07-13T11:17:54;27.26;35.53
66722;SHT31;53633;49.932;10.884;2023-07-13T11:20:40;27.29;35.38
66722;SHT31;53633;49.932;10.884;2023-07-13T11:23:30;27.50;34.92
66722;SHT31;53633;49.932;10.884;2023-07-13T11:25:57;27.83;34.37
66722;SHT31;53633;49.932;10.884;2023-07-13T11:28:25;27.71;34.14
66722;SHT31;53633;49.932;10.884;2023-07-13T11:31:02;27.76;33.79
66722;SHT31;53633;49.932;10.884;2023-07-13T11:33:49;27.66;33.84
66722;SHT31;53633;49.932;10.884;2023-07-13T11:36:19;27.77;33.92
66722;SHT31;53633;49.932;10.884;2023-07-13T11:38:59;27.97;33.46
66722;SHT31;53633;49.932;10.884;2023-07-13T11:41:30;27.77;33.94
66722;SHT31;53633;49.932;10.884;2023-07-13T11:44:06;27.74;33.43
66722;SHT31;53633;49.932;10.884;2023-07-13T11:46:33;27.77;33.33
66722;SHT31;53633;49.932;10.884;2023-07-13T11:49:00;28.02;33.23
66722;SHT31;53633;49.932;10.884;2023-07-13T11:51:30;28.00;33.53
66722;SHT31;53633;49.932;10.884;2023-07-13T11:54:01;28.17;33.43
66722;SHT31;53633;49.932;10.884;2023-07-13T11:56:28;28.09;33.67
66722;SHT31;53633;49.932;10.884;2023-07-13T11:58:57;28.17;33.35
66722;SHT31;53633;49.932;10.884;2023-07-13T12:01:26;28.04;33.73
66722;SHT31;53633;49.932;10.884;2023-07-13T12:03:54;28.38;33.47
66722;SHT31;53633;49.932;10.884;2023-07-13T12:06:27;28.49;33.99
66722;SHT31;53633;49.932;10.884;2023-07-13T12:08:58;28.17;33.47
66722;SHT31;53633;49.932;10.884;2023-07-13T12:11:25;28.45;32.87
66722;SHT31;53633;49.932;10.884;2023-07-13T12:13:52;28.09;32.91
66722;SHT31;53633;49.932;10.884;2023-07-13T12:16:25;27.87;33.54
66722;SHT31;53633;49.932;10.884;2023-07-13T12:18:53;27.50;34.28
66722;SHT31;53633;49.932;10.884;2023-07-13T12:21:26;27.28;34.91
66722;SHT31;53633;49.932;10.884;2023-07-13T12:23:54;27.28;34.84
66722;SHT31;53633;49.932;10.884;2023-07-13T12:26:22;27.57;34.33
66722;SHT31;53633;49.932;10.884;2023-07-13T12:28:52;27.87;34.57
66722;SHT31;53633;49.932;10.884;2023-07-13T12:31:31;28.00;35.03
66722;SHT31;53633;49.932;10.884;2023-07-13T12:34:00;27.98;34.35
66722;SHT31;53633;49.932;10.884;2023-07-13T12:36:31;28.00;34.07
66722;SHT31;53633;49.932;10.884;2023-07-13T12:39:00;28.21;34.19
66722;SHT31;53633;49.932;10.884;2023-07-13T12:41:29;28.35;33.74
66722;SHT31;53633;49.932;10.884;2023-07-13T12:43:56;28.29;33.82
66722;SHT31;53633;49.932;10.884;2023-07-13T12:46:24;28.18;33.42
66722;SHT31;53633;49.932;10.884;2023-07-13T12:48:54;28.02;33.23
66722;SHT31;53633;49.932;10.884;2023-07-13T12:51:38;28.45;33.09
66722;SHT31;53633;49.932;10.884;2023-07-13T12:54:13;28.32;33.61
66722;SHT31;53633;49.932;10.884;2023-07-13T12:56:43;28.12;33.88
66722;SHT31;53633;49.932;10.884;2023-07-13T12:59:17;28.09;33.94
66722;SHT31;53633;49.932;10.884;2023-07-13T13:01:45;28.14;34.39
66722;SHT31;53633;49.932;10.884;2023-07-13T13:04:12;28.11;34.41
66722;SHT31;53633;49.932;10.884;2023-07-13T13:06:40;28.08;34.17
66722;SHT31;53633;49.932;10.884;2023-07-13T13:09:11;28.18;34.06
66722;SHT31;53633;49.932;10.884;2023-07-13T13:11:39;28.22;34.34
66722;SHT31;53633;49.932;10.884;2023-07-13T13:14:07;28.41;33.90
66722;SHT31;53633;49.932;10.884;2023-07-13T13:16:35;27.96;34.30
66722;SHT31;53633;49.932;10.884;2023-07-13T13:19:13;28.11;34.32
66722;SHT31;53633;49.932;10.884;2023-07-13T13:21:40;28.29;34.71
66722;SHT31;53633;49.932;10.884;2023-07-13T13:24:11;28.38;34.55
66722;SHT31;53633;49.932;10.884;2023-07-13T13:26:38;28.43;34.41
66722;SHT31;53633;49.932;10.884;2023-07-13T13:29:12;28.55;33.85
66722;SHT31;53633;49.932;10.884;2023-07-13T13:31:39;28.38;33.99
66722;SHT31;53633;49.932;10.884;2023-07-13T13:34:08;28.17;34.31
66722;SHT31;53633;49.932;10.884;2023-07-13T13:36:36;27.93;35.11
66722;SHT31;53633;49.932;10.884;2023-07-13T13:39:05;27.73;34.96
66722;SHT31;53633;49.932;10.884;2023-07-13T13:41:31;27.77;34.87
66722;SHT31;53633;49.932;10.884;2023-07-13T13:43:58;27.88;34.77
66722;SHT31;53633;49.932;10.884;2023-07-13T13:46:26;27.77;35.01
66722;SHT31;53633;49.932;10.884;2023-07-13T13:48:53;27.90;34.67
66722;SHT31;53633;49.932;10.884;2023-07-13T13:51:21;28.08;34.59
66722;SHT31;53633;49.932;10.884;2023-07-13T13:53:48;28.38;34.45
66722;SHT31;53633;49.932;10.884;2023-07-13T13:56:17;28.35;34.02
66722;SHT31;53633;49.932;10.884;2023-07-13T13:58:45;27.91;34.62
66722;SHT31;53633;49.932;10.884;2023-07-13T14:01:12;27.81;34.76
66722;SHT31;53633;49.932;10.884;2023-07-13T14:03:41;27.52;34.91
66722;SHT31;53633;49.932;10.884;2023-07-13T14:06:11;27.23;35.25
66722;SHT31;53633;49.932;10.884;2023-07-13T14:08:38;27.09;35.50
66722;SHT31;53633;49.932;10.884;2023-07-13T14:11:07;27.02;35.94
66722;SHT31;53633;49.932;10.884;2023-07-13T14:13:40;26.92;36.00
66722;SHT31;53633;49.932;10.884;2023-07-13T14:16:11;26.85;36.28
66722;SHT31;53633;49.932;10.884;2023-07-13T14:18:38;27.11;35.75
66722;SHT31;53633;49.932;10.884;2023-07-13T14:21:11;27.18;35.68
66722;SHT31;53633;49.932;10.884;2023-07-13T14:23:39;27.22;35.89
66722;SHT31;53633;49.932;10.884;2023-07-13T14:26:10;27.42;35.98
66722;SHT31;53633;49.932;10.884;2023-07-13T14:28:41;27.47;36.01
66722;SHT31;53633;49.932;10.884;2023-07-13T14:31:08;27.45;35.96
66722;SHT31;53633;49.932;10.884;2023-07-13T14:33:35;27.32;35.56
66722;SHT31;53633;49.932;10.884;2023-07-13T14:36:02;27.32;35.50
66722;SHT31;53633;49.932;10.884;2023-07-13T14:38:30;27.21;35.69
66722;SHT31;53633;49.932;10.884;2023-07-13T14:40:57;27.42;35.25
66722;SHT31;53633;49.932;10.884;2023-07-13T14:43:24;27.43;35.78
66722;SHT31;53633;49.932;10.884;2023-07-13T14:45:51;27.52;35.76
66722;SHT31;53633;49.932;10.884;2023-07-13T14:48:20;27.46;36.19
66722;SHT31;53633;49.932;10.884;2023-07-13T14:50:51;27.39;35.44
66722;SHT31;53633;49.932;10.884;2023-07-13T14:53:19;27.36;35.87
66722;SHT31;53633;49.932;10.884;2023-07-13T14:55:48;27.52;36.14
66722;SHT31;53633;49.932;10.884;2023-07-13T14:58:16;27.43;35.74
66722;SHT31;53633;49.932;10.884;2023-07-13T15:00:43;27.28;35.82
66722;SHT31;53633;49.932;10.884;2023-07-13T15:03:17;27.47;36.06
66722;SHT31;53633;49.932;10.884;2023-07-13T15:05:46;27.45;35.34
66722;SHT31;53633;49.932;10.884;2023-07-13T15:08:12;27.45;35.24
66722;SHT31;53633;49.932;10.884;2023-07-13T15:10:39;27.47;35.51
66722;SHT31;53633;49.932;10.884;2023-07-13T15:13:15;27.46;35.09
66722;SHT31;53633;49.932;10.884;2023-07-13T15:15:47;27.47;35.27
66722;SHT31;53633;49.932;10.884;2023-07-13T15:18:16;27.38;35.72
66722;SHT31;53633;49.932;10.884;2023-07-13T15:20:44;27.35;35.58
66722;SHT31;53633;49.932;10.884;2023-07-13T15:23:12;26.98;35.67
66722;SHT31;53633;49.932;10.884;2023-07-13T15:25:41;27.15;35.92
66722;SHT31;53633;49.932;10.884;2023-07-13T15:28:08;27.19;35.82